createdAt,value
2022-09-27T00:00:07.473Z,99.90
2022-09-27T00:01:16.615Z,99.90
2022-09-27T00:02:31.222Z,99.90
2022-09-27T00:03:36.526Z,99.90
2022-09-27T00:04:48.531Z,99.90
2022-09-27T00:06:05.220Z,99.90
2022-09-27T00:07:11.286Z,99.90
2022-09-27T00:08:17.045Z,99.90
2022-09-27T00:09:30.364Z,99.90
2022-09-27T00:10:33.529Z,99.90
2022-09-27T00:11:46.803Z,99.90
2022-09-27T00:13:02.933Z,99.90
2022-09-27T00:14:10.643Z,99.90
2022-09-27T00:15:17.041Z,99.90
2022-09-27T00:16:26.608Z,99.90
2022-09-27T00:17:35.406Z,99.90
2022-09-27T00:18:44.298Z,99.90
2022-09-27T00:19:53.005Z,99.90
2022-09-27T00:21:01.208Z,99.90
2022-09-27T00:22:05.644Z,99.90
2022-09-27T00:23:17.277Z,99.90
2022-09-27T00:24:23.077Z,99.90
2022-09-27T00:25:30.992Z,99.90
2022-09-27T00:26:42.520Z,99.90
2022-09-27T00:28:14.678Z,99.90
2022-09-27T00:29:31.224Z,99.90
2022-09-27T00:30:43.238Z,99.90
2022-09-27T00:31:51.939Z,99.90
2022-09-27T00:32:54.943Z,99.90
2022-09-27T00:34:09.855Z,99.90
2022-09-27T00:35:19.144Z,99.90
2022-09-27T00:36:26.653Z,99.90
2022-09-27T00:37:33.682Z,99.90
2022-09-27T00:38:39.407Z,99.90
2022-09-27T00:39:48.125Z,99.90
2022-09-27T00:42:15.507Z,99.90
2022-09-27T00:43:24.684Z,99.90
2022-09-27T00:45:08.635Z,99.90
2022-09-27T00:46:20.580Z,99.90
2022-09-27T00:47:34.923Z,99.90
2022-09-27T00:48:42.031Z,99.90
2022-09-27T00:49:58.944Z,99.90
2022-09-27T00:51:10.229Z,99.90
2022-09-27T00:52:21.073Z,99.90
2022-09-27T00:53:32.394Z,99.90
2022-09-27T00:54:45.443Z,99.90
2022-09-27T00:56:01.424Z,99.90
2022-09-27T00:57:09.523Z,99.90
2022-09-27T00:58:17.499Z,99.90
2022-09-27T00:59:30.810Z,99.90
2022-09-27T01:00:38.639Z,99.90
2022-09-27T01:01:46.775Z,99.90
2022-09-27T01:02:54.687Z,99.90
2022-09-27T01:04:05.007Z,99.90
2022-09-27T01:05:17.316Z,99.90
2022-09-27T01:06:27.572Z,99.90
2022-09-27T01:07:34.988Z,99.90
2022-09-27T01:08:40.671Z,99.90
2022-09-27T01:09:52.363Z,99.90
2022-09-27T01:11:15.119Z,99.90
2022-09-27T01:12:40.111Z,99.90
2022-09-27T01:14:06.710Z,99.90
2022-09-27T01:15:25.347Z,99.90
2022-09-27T01:16:48.806Z,99.90
2022-09-27T01:18:39.231Z,99.90
2022-09-27T01:21:55.436Z,99.90
2022-09-27T01:23:20.535Z,99.90
2022-09-27T01:24:56.538Z,99.90
2022-09-27T01:26:15.392Z,99.90
2022-09-27T01:28:12.208Z,99.90
2022-09-27T01:29:31.672Z,99.90
2022-09-27T01:30:55.052Z,99.90
2022-09-27T01:32:08.514Z,99.90
2022-09-27T01:33:30.800Z,99.90
2022-09-27T01:34:48.692Z,99.90
2022-09-27T01:36:19.412Z,99.90
2022-09-27T01:37:41.174Z,99.90
2022-09-27T01:39:03.504Z,99.90
2022-09-27T01:40:29.872Z,99.90
2022-09-27T01:42:12.797Z,99.90
2022-09-27T01:43:40.952Z,99.90
2022-09-27T01:44:56.829Z,99.90
2022-09-27T01:46:13.529Z,99.90
2022-09-27T01:47:42.490Z,99.90
2022-09-27T01:49:19.506Z,99.90
2022-09-27T01:50:36.833Z,99.90
2022-09-27T01:51:51.160Z,99.90
2022-09-27T01:53:08.459Z,99.90
2022-09-27T01:54:33.275Z,99.90
2022-09-27T01:56:15.168Z,99.90
2022-09-27T01:57:50.384Z,99.90
2022-09-27T01:59:05.318Z,99.90
2022-09-27T02:00:13.376Z,99.90
2022-09-27T02:01:24.443Z,99.90
2022-09-27T02:02:36.341Z,99.90
2022-09-27T02:04:07.365Z,99.90
2022-09-27T02:05:43.715Z,99.90
2022-09-27T02:07:13.894Z,99.90
2022-09-27T02:08:36.664Z,99.90
2022-09-27T02:10:03.466Z,99.90
2022-09-27T02:11:20.807Z,99.90
2022-09-27T02:12:50.847Z,99.90
2022-09-27T02:14:08.663Z,99.90
2022-09-27T02:15:52.097Z,99.90
2022-09-27T02:17:24.866Z,99.90
2022-09-27T02:18:38.224Z,99.90
2022-09-27T02:20:06.254Z,99.90
2022-09-27T02:21:23.548Z,99.90
2022-09-27T02:22:42.516Z,99.90
2022-09-27T02:23:58.325Z,99.90
2022-09-27T02:25:14.308Z,99.90
2022-09-27T02:26:28.336Z,99.90
2022-09-27T02:27:40.751Z,99.90
2022-09-27T02:29:05.270Z,99.90
2022-09-27T02:30:18.833Z,99.90
2022-09-27T02:33:38.969Z,99.90
2022-09-27T02:34:55.345Z,99.90
2022-09-27T02:36:14.170Z,99.90
2022-09-27T02:37:25.153Z,99.90
2022-09-27T02:38:29.888Z,99.90
2022-09-27T02:39:44.035Z,99.90
2022-09-27T02:40:50.615Z,99.90
2022-09-27T02:42:02.301Z,99.90
2022-09-27T02:43:10.996Z,99.90
2022-09-27T02:44:25.529Z,99.90
2022-09-27T02:45:43.910Z,99.90
2022-09-27T02:47:24.466Z,99.90
2022-09-27T02:49:01.191Z,99.90
2022-09-27T02:50:28.572Z,99.90
2022-09-27T02:52:10.084Z,99.90
2022-09-27T02:53:30.135Z,99.90
2022-09-27T02:55:08.187Z,99.90
2022-09-27T02:56:49.684Z,99.90
2022-09-27T02:58:31.834Z,99.90
2022-09-27T03:00:21.037Z,99.90
2022-09-27T03:01:53.499Z,99.90
2022-09-27T03:03:23.415Z,99.90
2022-09-27T03:04:53.338Z,99.90
2022-09-27T03:07:24.976Z,99.90
2022-09-27T03:08:38.567Z,99.90
2022-09-27T03:09:52.255Z,99.90
2022-09-27T03:11:09.093Z,99.90
2022-09-27T03:12:15.491Z,99.90
2022-09-27T03:13:25.658Z,99.90
2022-09-27T03:14:34.386Z,99.90
2022-09-27T03:15:54.237Z,99.90
2022-09-27T03:17:43.164Z,99.90
2022-09-27T03:19:03.934Z,99.90
2022-09-27T03:22:11.631Z,99.90
2022-09-27T03:23:18.138Z,99.90
2022-09-27T03:24:41.078Z,99.90
2022-09-27T03:25:49.391Z,99.90
2022-09-27T03:27:07.681Z,99.90
2022-09-27T03:28:12.242Z,99.90
2022-09-27T03:29:20.280Z,99.90
2022-09-27T03:30:31.028Z,99.90
2022-09-27T03:31:44.752Z,99.90
2022-09-27T03:33:26.770Z,99.90
2022-09-27T03:35:08.592Z,99.90
2022-09-27T03:36:24.785Z,99.90
2022-09-27T03:37:49.716Z,99.90
2022-09-27T03:38:58.930Z,99.90
2022-09-27T03:40:10.592Z,99.90
2022-09-27T03:41:23.552Z,99.90
2022-09-27T03:42:32.517Z,99.90
2022-09-27T03:43:44.314Z,99.90
2022-09-27T03:44:56.282Z,99.90
2022-09-27T03:46:05.578Z,99.90
2022-09-27T03:47:18.670Z,99.90
2022-09-27T03:48:28.088Z,99.90
2022-09-27T03:49:40.240Z,99.90
2022-09-27T03:50:51.234Z,99.90
2022-09-27T03:52:00.692Z,99.90
2022-09-27T03:53:16.442Z,99.90
2022-09-27T03:54:21.779Z,99.90
2022-09-27T03:55:27.309Z,99.90
2022-09-27T03:56:41.350Z,99.90
2022-09-27T03:57:57.296Z,99.90
2022-09-27T03:59:05.032Z,99.90
2022-09-27T04:00:55.140Z,99.90
2022-09-27T04:02:06.883Z,99.90
2022-09-27T04:03:38.069Z,99.90
2022-09-27T04:05:11.773Z,99.90
2022-09-27T04:06:26.866Z,99.90
2022-09-27T04:07:58.519Z,99.90
2022-09-27T04:09:07.245Z,99.90
2022-09-27T04:12:02.569Z,99.90
2022-09-27T04:13:15.659Z,99.90
2022-09-27T04:14:30.292Z,99.90
2022-09-27T04:16:14.663Z,99.90
2022-09-27T04:18:10.707Z,99.90
2022-09-27T04:20:11.561Z,99.90
2022-09-27T04:21:37.631Z,99.90
2022-09-27T04:23:06.505Z,99.90
2022-09-27T04:24:21.716Z,99.90
2022-09-27T04:25:44.116Z,99.90
2022-09-27T04:27:12.200Z,99.90
2022-09-27T04:28:35.627Z,99.90
2022-09-27T04:29:48.496Z,99.90
2022-09-27T04:31:18.849Z,99.90
2022-09-27T04:35:02.425Z,99.90
2022-09-27T04:36:25.217Z,99.90
2022-09-27T04:37:41.666Z,99.90
2022-09-27T04:38:50.144Z,99.90
2022-09-27T04:40:00.898Z,99.90
2022-09-27T04:41:06.156Z,99.90
2022-09-27T04:42:18.863Z,99.90
2022-09-27T04:43:23.697Z,99.90
2022-09-27T04:44:33.473Z,99.90
2022-09-27T04:45:38.560Z,99.90
2022-09-27T04:46:48.753Z,99.90
2022-09-27T04:47:54.346Z,99.90
2022-09-27T04:49:17.922Z,99.90
2022-09-27T04:50:43.843Z,99.90
2022-09-27T04:51:55.933Z,99.90
2022-09-27T04:53:00.308Z,99.90
2022-09-27T04:54:07.702Z,99.90
2022-09-27T04:55:24.757Z,99.90
2022-09-27T04:56:30.956Z,99.90
2022-09-27T04:57:39.505Z,99.90
2022-09-27T04:58:48.564Z,99.90
2022-09-27T04:59:55.098Z,99.90
2022-09-27T05:01:04.586Z,99.90
2022-09-27T05:02:27.237Z,99.90
2022-09-27T05:03:59.483Z,99.90
2022-09-27T05:05:07.077Z,99.90
2022-09-27T05:06:20.582Z,99.90
2022-09-27T05:07:27.429Z,99.90
2022-09-27T05:08:36.988Z,99.90
2022-09-27T05:09:57.679Z,99.90
2022-09-27T05:11:14.102Z,99.90
2022-09-27T05:12:21.995Z,99.90
2022-09-27T05:13:41.611Z,99.90
2022-09-27T05:14:55.352Z,99.90
2022-09-27T05:16:29.688Z,99.90
2022-09-27T05:18:12.152Z,99.90
2022-09-27T05:19:45.547Z,99.90
2022-09-27T05:21:26.923Z,99.90
2022-09-27T05:22:32.378Z,99.90
2022-09-27T05:23:37.844Z,99.90
2022-09-27T05:24:40.907Z,99.90
2022-09-27T05:25:55.866Z,99.90
2022-09-27T05:27:12.044Z,99.90
2022-09-27T05:28:22.120Z,99.90
2022-09-27T05:29:33.275Z,99.90
2022-09-27T05:30:46.632Z,99.90
2022-09-27T05:31:57.404Z,99.90
2022-09-27T05:33:04.660Z,99.90
2022-09-27T05:34:39.663Z,99.90
2022-09-27T05:35:48.502Z,99.90
2022-09-27T05:36:55.025Z,99.90
2022-09-27T05:38:04.901Z,99.90
2022-09-27T05:39:13.520Z,99.90
2022-09-27T05:40:40.412Z,99.90
2022-09-27T05:43:10.049Z,99.90
2022-09-27T05:44:17.817Z,99.90
2022-09-27T05:45:34.587Z,99.90
2022-09-27T05:46:44.094Z,99.90
2022-09-27T05:47:55.862Z,99.90
2022-09-27T05:49:11.127Z,99.90
2022-09-27T05:50:15.505Z,99.90
2022-09-27T05:51:22.946Z,99.90
2022-09-27T05:52:31.009Z,99.90
2022-09-27T05:53:40.549Z,99.90
2022-09-27T05:54:56.883Z,99.90
2022-09-27T05:56:04.783Z,99.90
2022-09-27T05:57:28.018Z,99.90
2022-09-27T05:58:41.981Z,99.90
2022-09-27T06:00:07.191Z,99.90
2022-09-27T06:01:22.683Z,99.90
2022-09-27T06:02:46.863Z,99.90
2022-09-27T06:04:21.490Z,99.90
2022-09-27T06:05:53.348Z,99.90
2022-09-27T06:07:18.204Z,99.90
2022-09-27T06:08:28.272Z,99.90
2022-09-27T06:09:32.004Z,99.90
2022-09-27T06:10:43.891Z,99.90
2022-09-27T06:11:54.043Z,99.90
2022-09-27T06:13:03.377Z,99.90
2022-09-27T06:14:16.183Z,99.90
2022-09-27T06:15:54.881Z,99.90
2022-09-27T06:17:01.075Z,99.90
2022-09-27T06:18:15.294Z,99.90
2022-09-27T06:19:20.515Z,99.90
2022-09-27T06:20:29.633Z,99.90
2022-09-27T06:21:36.375Z,99.90
2022-09-27T06:22:39.257Z,99.90
2022-09-27T06:23:54.095Z,99.90
2022-09-27T06:25:06.782Z,99.90
2022-09-27T06:26:22.445Z,99.90
2022-09-27T06:27:39.268Z,99.90
2022-09-27T06:28:49.462Z,99.90
2022-09-27T06:30:02.524Z,99.90
2022-09-27T06:31:25.195Z,99.90
2022-09-27T06:32:55.229Z,99.90
2022-09-27T06:34:06.951Z,99.90
2022-09-27T06:35:13.167Z,99.90
2022-09-27T06:36:22.353Z,99.90
2022-09-27T06:37:28.230Z,99.90
2022-09-27T06:38:35.729Z,99.90
2022-09-27T06:39:58.162Z,99.90
2022-09-27T06:41:25.072Z,99.90
2022-09-27T06:42:47.517Z,99.90
2022-09-27T06:44:18.101Z,99.90
2022-09-27T06:45:42.504Z,99.90
2022-09-27T06:47:28.136Z,99.90
2022-09-27T06:48:53.791Z,99.90
2022-09-27T06:50:06.755Z,99.90
2022-09-27T06:51:14.788Z,99.90
2022-09-27T06:52:22.511Z,99.90
2022-09-27T06:53:29.441Z,99.90
2022-09-27T06:54:35.034Z,99.90
2022-09-27T06:55:42.938Z,99.90
2022-09-27T06:57:03.901Z,99.90
2022-09-27T06:58:26.367Z,99.90
2022-09-27T07:00:08.903Z,99.90
2022-09-27T07:01:39.056Z,99.90
2022-09-27T07:03:02.463Z,99.90
2022-09-27T07:04:26.925Z,99.90
2022-09-27T07:05:44.506Z,99.90
2022-09-27T07:07:06.043Z,99.90
2022-09-27T07:08:20.271Z,99.90
2022-09-27T07:09:33.591Z,99.90
2022-09-27T07:10:41.235Z,99.90
2022-09-27T07:11:55.550Z,99.90
2022-09-27T07:13:04.207Z,99.90
2022-09-27T07:14:11.410Z,99.90
2022-09-27T07:15:22.792Z,99.90
2022-09-27T07:16:31.612Z,99.90
2022-09-27T07:17:43.585Z,99.90
2022-09-27T07:18:58.009Z,99.90
2022-09-27T07:20:13.921Z,99.90
2022-09-27T07:21:19.091Z,99.90
2022-09-27T07:22:24.008Z,99.90
2022-09-27T07:23:39.002Z,99.90
2022-09-27T07:24:44.205Z,99.90
2022-09-27T07:25:54.142Z,99.90
2022-09-27T07:27:04.697Z,99.90
2022-09-27T07:28:21.027Z,99.90
2022-09-27T07:29:38.304Z,99.90
2022-09-27T07:30:47.071Z,99.90
2022-09-27T07:31:58.562Z,99.90
2022-09-27T07:33:09.096Z,99.90
2022-09-27T07:34:21.125Z,99.90
2022-09-27T07:37:08.229Z,99.90
2022-09-27T07:38:21.631Z,99.90
2022-09-27T07:39:27.757Z,99.90
2022-09-27T07:40:44.811Z,99.90
2022-09-27T07:41:51.483Z,99.90
2022-09-27T07:44:22.987Z,99.90
2022-09-27T07:45:59.971Z,99.90
2022-09-27T07:47:29.530Z,99.90
2022-09-27T07:48:55.733Z,99.90
2022-09-27T07:50:24.394Z,99.90
2022-09-27T07:51:35.775Z,99.90
2022-09-27T07:53:19.108Z,99.90
2022-09-27T07:54:40.116Z,99.90
2022-09-27T07:55:53.470Z,99.90
2022-09-27T07:57:05.949Z,99.90
2022-09-27T07:58:18.517Z,99.90
2022-09-27T07:59:28.240Z,99.90
2022-09-27T08:00:38.970Z,99.90
2022-09-27T08:01:51.711Z,99.90
2022-09-27T08:02:58.601Z,99.90
2022-09-27T08:04:04.277Z,99.90
2022-09-27T08:05:13.037Z,99.90
2022-09-27T08:06:26.569Z,99.90
2022-09-27T08:07:31.292Z,99.90
2022-09-27T08:08:42.531Z,99.90
2022-09-27T08:09:49.114Z,99.90
2022-09-27T08:10:57.727Z,99.90
2022-09-27T08:12:00.851Z,99.90
2022-09-27T08:13:10.256Z,99.90
2022-09-27T08:14:16.808Z,99.90
2022-09-27T08:15:22.462Z,99.90
2022-09-27T08:16:27.625Z,99.90
2022-09-27T08:17:52.638Z,99.90
2022-09-27T08:19:36.185Z,99.90
2022-09-27T08:21:13.043Z,99.90
2022-09-27T08:22:50.819Z,99.90
2022-09-27T08:26:11.676Z,99.90
2022-09-27T08:27:33.103Z,99.90
2022-09-27T08:28:42.688Z,99.90
2022-09-27T08:30:21.426Z,99.90
2022-09-27T08:31:30.843Z,99.90
2022-09-27T08:32:40.781Z,99.90
2022-09-27T08:33:51.349Z,99.90
2022-09-27T08:35:01.143Z,99.90
2022-09-27T08:36:18.517Z,99.90
2022-09-27T08:37:25.772Z,99.90
2022-09-27T08:38:35.929Z,99.90
2022-09-27T08:39:47.930Z,99.90
2022-09-27T08:41:02.425Z,99.90
2022-09-27T08:42:28.623Z,99.90
2022-09-27T08:43:45.120Z,99.90
2022-09-27T08:45:09.731Z,99.90
2022-09-27T08:46:37.267Z,99.90
2022-09-27T08:47:51.108Z,99.90
2022-09-27T08:49:08.111Z,99.90
2022-09-27T08:50:29.204Z,99.90
2022-09-27T08:51:43.574Z,99.90
2022-09-27T08:54:18.131Z,99.90
2022-09-27T08:55:34.329Z,99.90
2022-09-27T08:56:44.834Z,99.90
2022-09-27T08:59:25.826Z,99.90
2022-09-27T09:00:31.768Z,99.90
2022-09-27T09:01:41.379Z,99.90
2022-09-27T09:02:53.837Z,99.90
2022-09-27T09:04:19.867Z,99.90
2022-09-27T09:05:37.154Z,99.90
2022-09-27T09:07:01.537Z,99.90
2022-09-27T09:08:35.636Z,99.90
2022-09-27T09:10:00.508Z,99.90
2022-09-27T09:11:56.595Z,99.90
2022-09-27T09:13:19.495Z,99.90
2022-09-27T09:15:24.917Z,99.90
2022-09-27T09:16:50.672Z,99.90
2022-09-27T09:18:19.636Z,99.90
2022-09-27T09:19:58.056Z,99.90
2022-09-27T09:21:34.822Z,99.90
2022-09-27T09:22:57.962Z,99.90
2022-09-27T09:24:25.271Z,99.90
2022-09-27T09:25:53.431Z,99.90
2022-09-27T09:27:11.861Z,99.90
2022-09-27T09:28:31.849Z,99.90
2022-09-27T09:30:10.320Z,99.90
2022-09-27T09:31:44.644Z,99.90
2022-09-27T09:33:11.852Z,99.90
2022-09-27T09:34:28.265Z,99.90
2022-09-27T09:35:40.697Z,99.90
2022-09-27T09:39:04.885Z,99.90
2022-09-27T09:40:28.202Z,99.90
2022-09-27T09:41:41.555Z,99.90
2022-09-27T09:43:00.508Z,99.90
2022-09-27T09:44:20.785Z,99.90
2022-09-27T09:45:31.535Z,99.90
2022-09-27T09:46:47.375Z,99.90
2022-09-27T09:48:01.478Z,99.90
2022-09-27T09:49:19.380Z,99.90
2022-09-27T09:50:27.852Z,99.90
2022-09-27T09:51:41.123Z,99.90
2022-09-27T09:52:55.828Z,99.90
2022-09-27T09:54:17.492Z,99.90
2022-09-27T09:55:32.990Z,99.90
2022-09-27T09:56:46.171Z,99.90
2022-09-27T09:59:34.191Z,99.90
2022-09-27T10:00:40.798Z,99.90
2022-09-27T10:03:23.380Z,99.90
2022-09-27T10:04:29.727Z,99.90
2022-09-27T10:05:48.203Z,99.90
2022-09-27T10:07:01.561Z,99.90
2022-09-27T10:08:20.978Z,99.90
2022-09-27T10:09:36.589Z,99.90
2022-09-27T10:11:00.432Z,99.90
2022-09-27T10:12:26.305Z,99.90
2022-09-27T10:13:36.656Z,99.90
2022-09-27T10:14:51.140Z,99.90
2022-09-27T10:16:05.181Z,99.90
2022-09-27T10:17:40.662Z,99.90
2022-09-27T10:18:51.148Z,99.90
2022-09-27T10:20:03.877Z,99.90
2022-09-27T10:21:22.250Z,99.90
2022-09-27T10:22:38.100Z,99.90
2022-09-27T10:24:16.573Z,99.90
2022-09-27T10:25:55.438Z,99.90
2022-09-27T10:27:27.155Z,99.90
2022-09-27T10:28:37.451Z,99.90
2022-09-27T10:29:46.132Z,99.90
2022-09-27T10:32:47.501Z,99.90
2022-09-27T10:34:30.291Z,99.90
2022-09-27T10:35:47.888Z,99.90
2022-09-27T10:37:23.897Z,99.90
2022-09-27T10:39:06.082Z,99.90
2022-09-27T10:40:40.759Z,99.90
2022-09-27T10:41:52.423Z,99.90
2022-09-27T10:43:43.503Z,99.90
2022-09-27T10:45:34.132Z,99.90
2022-09-27T10:46:57.649Z,99.90
2022-09-27T10:49:53.630Z,99.90
2022-09-27T10:51:35.055Z,99.90
2022-09-27T10:52:44.724Z,99.90
2022-09-27T10:54:02.443Z,99.90
2022-09-27T10:55:32.503Z,99.90
2022-09-27T10:56:44.647Z,99.90
2022-09-27T10:57:56.566Z,99.90
2022-09-27T10:59:07.994Z,99.90
2022-09-27T11:00:32.462Z,99.90
2022-09-27T11:03:21.011Z,99.90
2022-09-27T11:04:36.141Z,99.90
2022-09-27T11:05:44.474Z,99.90
2022-09-27T11:06:53.105Z,99.90
2022-09-27T11:08:06.238Z,99.90
2022-09-27T11:09:33.100Z,99.90
2022-09-27T11:10:45.075Z,99.90
2022-09-27T11:12:26.628Z,99.90
2022-09-27T11:13:33.696Z,99.90
2022-09-27T11:15:00.942Z,99.90
2022-09-27T11:16:31.463Z,99.90
2022-09-27T11:17:54.260Z,99.90
2022-09-27T11:19:22.405Z,99.90
2022-09-27T11:20:48.620Z,99.90
2022-09-27T11:22:28.661Z,99.90
2022-09-27T11:23:59.416Z,99.90
2022-09-27T11:26:41.680Z,99.90
2022-09-27T11:28:19.086Z,99.90
2022-09-27T11:29:49.342Z,99.90
2022-09-27T11:31:45.075Z,99.90
2022-09-27T11:33:36.153Z,99.90
2022-09-27T11:35:36.279Z,99.90
2022-09-27T11:37:15.012Z,99.90
2022-09-27T11:38:53.274Z,99.90
2022-09-27T11:40:27.572Z,99.90
2022-09-27T11:42:03.586Z,99.90
2022-09-27T11:43:52.592Z,99.90
2022-09-27T11:48:43.434Z,99.90
2022-09-27T11:50:44.521Z,99.90
2022-09-27T11:52:42.798Z,99.90
2022-09-27T11:54:13.060Z,99.90
2022-09-27T11:55:41.855Z,99.90
2022-09-27T11:57:27.807Z,99.90
2022-09-27T11:59:11.855Z,99.90
2022-09-27T12:00:39.005Z,99.90
2022-09-27T12:02:14.933Z,99.90
2022-09-27T12:04:10.661Z,99.90
2022-09-27T12:05:38.924Z,99.90
2022-09-27T12:07:07.471Z,99.90
2022-09-27T12:10:17.581Z,99.90
2022-09-27T12:11:27.434Z,99.90
2022-09-27T12:13:04.656Z,99.90
2022-09-27T12:14:24.733Z,99.90
2022-09-27T12:15:52.307Z,99.90
2022-09-27T12:17:14.241Z,99.90
2022-09-27T12:18:35.316Z,99.90
2022-09-27T12:20:03.154Z,99.90
2022-09-27T12:21:18.859Z,99.90
2022-09-27T12:22:57.572Z,99.90
2022-09-27T12:24:07.525Z,99.90
2022-09-27T12:25:24.272Z,99.90
2022-09-27T12:26:55.320Z,99.90
2022-09-27T12:28:08.447Z,99.90
2022-09-27T12:29:27.580Z,99.90
2022-09-27T12:30:36.916Z,99.90
2022-09-27T12:31:54.395Z,99.90
2022-09-27T12:33:09.587Z,99.90
2022-09-27T12:36:26.939Z,99.90
2022-09-27T12:37:39.240Z,99.90
2022-09-27T12:38:49.273Z,99.90
2022-09-27T12:40:04.983Z,99.90
2022-09-27T12:41:23.636Z,99.90
2022-09-27T12:43:04.298Z,99.90
2022-09-27T12:44:21.508Z,99.90
2022-09-27T12:45:49.172Z,99.90
2022-09-27T12:46:53.951Z,99.90
2022-09-27T12:48:15.028Z,99.90
2022-09-27T12:49:34.960Z,99.90
2022-09-27T12:50:55.022Z,99.90
2022-09-27T12:52:13.365Z,99.80
2022-09-27T12:53:25.746Z,99.50
2022-09-27T12:55:18.046Z,99.70
2022-09-27T12:56:41.747Z,99.30
2022-09-27T12:58:06.137Z,99.00
2022-09-27T12:59:43.442Z,99.30
2022-09-27T13:01:01.289Z,98.80
2022-09-27T13:03:14.207Z,99.10
2022-09-27T13:04:41.217Z,98.80
2022-09-27T13:06:18.948Z,99.30
2022-09-27T13:07:44.685Z,98.70
2022-09-27T13:09:30.116Z,98.50
2022-09-27T13:11:01.179Z,98.30
2022-09-27T13:12:23.829Z,98.40
2022-09-27T13:13:41.718Z,98.30
2022-09-27T13:15:03.820Z,98.30
2022-09-27T13:16:11.281Z,98.50
2022-09-27T13:17:54.635Z,98.40
2022-09-27T13:19:40.049Z,98.40
2022-09-27T13:20:53.024Z,98.20
2022-09-27T13:22:43.585Z,98.10
2022-09-27T13:24:06.689Z,98.10
2022-09-27T13:25:55.921Z,98.00
2022-09-27T13:27:50.200Z,98.00
2022-09-27T13:29:05.866Z,98.10
2022-09-27T13:30:56.492Z,98.00
2022-09-27T13:32:23.370Z,98.00
2022-09-27T13:33:56.059Z,97.50
2022-09-27T13:35:21.586Z,97.40
2022-09-27T13:36:55.806Z,97.20
2022-09-27T13:38:04.395Z,97.10
2022-09-27T13:39:32.810Z,97.30
2022-09-27T13:41:21.478Z,97.30
2022-09-27T13:42:46.691Z,97.20
2022-09-27T13:44:09.396Z,97.30
2022-09-27T13:45:40.319Z,97.40
2022-09-27T13:47:03.987Z,97.70
2022-09-27T13:48:26.721Z,97.60
2022-09-27T13:49:42.776Z,97.60
2022-09-27T13:51:13.871Z,97.60
2022-09-27T13:54:10.990Z,96.70
2022-09-27T13:55:47.148Z,96.60
2022-09-27T13:57:03.932Z,96.90
2022-09-27T13:58:32.481Z,97.10
2022-09-27T13:59:52.873Z,97.20
2022-09-27T14:01:30.424Z,97.30
2022-09-27T14:02:52.961Z,97.70
2022-09-27T14:04:20.370Z,97.30
2022-09-27T14:05:40.158Z,97.20
2022-09-27T14:06:57.889Z,97.40
2022-09-27T14:08:12.823Z,97.90
2022-09-27T14:09:30.330Z,97.50
2022-09-27T14:10:47.316Z,97.70
2022-09-27T14:12:01.066Z,97.60
2022-09-27T14:13:21.071Z,97.40
2022-09-27T14:14:39.519Z,97.50
2022-09-27T14:15:53.255Z,97.40
2022-09-27T14:17:17.391Z,97.40
2022-09-27T14:18:33.911Z,97.60
2022-09-27T14:19:44.959Z,97.80
2022-09-27T14:21:31.649Z,97.70
2022-09-27T14:22:58.148Z,97.60
2022-09-27T14:24:32.926Z,97.80
2022-09-27T14:25:54.358Z,97.80
2022-09-27T14:27:24.124Z,97.90
2022-09-27T14:28:54.419Z,97.80
2022-09-27T14:30:28.779Z,98.00
2022-09-27T14:31:53.089Z,98.10
2022-09-27T14:33:32.734Z,98.20
2022-09-27T14:34:44.560Z,98.20
2022-09-27T14:36:11.787Z,98.20
2022-09-27T14:37:35.600Z,98.00
2022-09-27T14:39:01.491Z,98.00
2022-09-27T14:40:32.731Z,98.10
2022-09-27T14:43:09.351Z,98.30
2022-09-27T14:46:02.275Z,98.30
2022-09-27T14:47:11.804Z,98.30
2022-09-27T14:48:24.705Z,98.40
2022-09-27T14:49:34.733Z,98.30
2022-09-27T14:50:42.696Z,98.40
2022-09-27T14:51:49.264Z,98.50
2022-09-27T14:53:00.722Z,98.50
2022-09-27T14:54:07.674Z,98.60
2022-09-27T14:55:22.770Z,98.60
2022-09-27T14:56:44.617Z,98.60
2022-09-27T14:58:19.827Z,98.60
2022-09-27T14:59:59.514Z,98.50
2022-09-27T15:01:07.257Z,98.40
2022-09-27T15:02:33.840Z,98.60
2022-09-27T15:03:47.401Z,98.60
2022-09-27T15:04:58.068Z,98.70
2022-09-27T15:06:12.828Z,98.70
2022-09-27T15:07:17.225Z,98.80
2022-09-27T15:11:16.475Z,98.80
2022-09-27T15:13:00.607Z,98.80
2022-09-27T15:21:08.728Z,98.90
2022-09-27T15:24:07.996Z,99.00
2022-09-27T15:25:35.104Z,99.10
2022-09-27T15:26:50.664Z,99.10
2022-09-27T15:27:57.927Z,99.20
2022-09-27T15:29:09.109Z,99.20
2022-09-27T15:30:21.654Z,99.20
2022-09-27T15:31:36.421Z,99.20
2022-09-27T15:32:56.170Z,99.30
2022-09-27T15:35:36.024Z,99.40
2022-09-27T15:37:06.563Z,99.60
2022-09-27T15:38:32.940Z,99.70
2022-09-27T15:39:39.960Z,99.50
2022-09-27T15:41:14.109Z,99.50
2022-09-27T15:42:22.552Z,99.50
2022-09-27T15:43:32.415Z,99.50
2022-09-27T15:44:50.900Z,99.60
2022-09-27T15:46:14.765Z,99.60
2022-09-27T15:47:57.555Z,99.60
2022-09-27T15:49:54.742Z,99.70
2022-09-27T15:51:38.552Z,99.80
2022-09-27T15:52:54.829Z,99.60
2022-09-27T15:54:04.329Z,99.60
2022-09-27T15:55:14.115Z,99.60
2022-09-27T15:56:26.218Z,99.90
2022-09-27T15:57:32.490Z,99.70
2022-09-27T15:58:41.511Z,99.60
2022-09-27T15:59:51.155Z,99.60
2022-09-27T16:01:04.847Z,99.80
2022-09-27T16:02:19.608Z,99.90
2022-09-27T16:03:29.642Z,99.60
2022-09-27T16:04:38.515Z,99.90
2022-09-27T16:05:58.183Z,99.90
2022-09-27T16:07:17.040Z,99.90
2022-09-27T16:08:42.909Z,99.90
2022-09-27T16:09:56.057Z,99.90
2022-09-27T16:11:07.206Z,99.90
2022-09-27T16:12:18.460Z,99.90
2022-09-27T16:13:36.982Z,99.90
2022-09-27T16:16:07.001Z,99.90
2022-09-27T16:17:22.119Z,99.90
2022-09-27T16:18:39.067Z,99.90
2022-09-27T16:21:19.227Z,99.90
2022-09-27T16:22:30.092Z,99.90
2022-09-27T16:23:43.509Z,99.90
2022-09-27T16:24:56.290Z,99.90
2022-09-27T16:25:59.581Z,99.90
2022-09-27T16:27:20.823Z,99.90
2022-09-27T16:28:41.067Z,99.90
2022-09-27T16:29:56.980Z,99.90
2022-09-27T16:31:09.402Z,99.90
2022-09-27T16:32:23.066Z,99.90
2022-09-27T16:33:29.257Z,99.90
2022-09-27T16:34:35.004Z,99.90
2022-09-27T16:35:43.382Z,99.90
2022-09-27T16:36:50.912Z,99.90
2022-09-27T16:37:56.891Z,99.90
2022-09-27T16:39:08.021Z,99.90
2022-09-27T16:40:16.895Z,99.90
2022-09-27T16:41:24.251Z,99.90
2022-09-27T16:42:28.925Z,99.90
2022-09-27T16:43:40.059Z,99.90
2022-09-27T16:44:54.894Z,99.90
2022-09-27T16:46:09.067Z,99.90
2022-09-27T16:47:24.312Z,99.90
2022-09-27T16:48:32.530Z,99.90
2022-09-27T16:50:01.244Z,99.90
2022-09-27T16:51:28.527Z,99.90
2022-09-27T16:52:38.169Z,99.90
2022-09-27T16:54:14.244Z,99.90
2022-09-27T16:55:44.428Z,99.90
2022-09-27T16:58:40.340Z,99.90
2022-09-27T17:00:16.586Z,99.90
2022-09-27T17:01:26.444Z,99.90
2022-09-27T17:02:49.997Z,99.90
2022-09-27T17:04:01.620Z,99.90
2022-09-27T17:05:12.463Z,99.90
2022-09-27T17:06:25.882Z,99.90
2022-09-27T17:07:42.656Z,99.90
2022-09-27T17:09:09.177Z,99.90
2022-09-27T17:10:31.282Z,99.90
2022-09-27T17:12:26.092Z,99.90
2022-09-27T17:13:38.709Z,99.90
2022-09-27T17:14:51.870Z,99.90
2022-09-27T17:16:09.274Z,99.90
2022-09-27T17:17:31.456Z,99.90
2022-09-27T17:18:40.471Z,99.90
2022-09-27T17:20:12.469Z,99.90
2022-09-27T17:21:27.504Z,99.90
2022-09-27T17:23:25.076Z,99.90
2022-09-27T17:26:17.490Z,99.90
2022-09-27T17:27:54.146Z,99.90
2022-09-27T17:29:11.365Z,99.90
2022-09-27T17:30:46.516Z,99.90
2022-09-27T17:32:09.379Z,99.90
2022-09-27T17:33:29.274Z,99.90
2022-09-27T17:34:50.920Z,99.90
2022-09-27T17:36:11.527Z,99.90
2022-09-27T17:37:27.532Z,99.90
2022-09-27T17:38:34.720Z,99.90
2022-09-27T17:40:22.982Z,99.90
2022-09-27T17:44:50.194Z,99.90
2022-09-27T17:45:57.723Z,99.90
2022-09-27T17:47:29.347Z,99.90
2022-09-27T17:49:01.337Z,99.90
2022-09-27T17:52:18.664Z,99.90
2022-09-27T17:53:31.135Z,99.90
2022-09-27T17:54:37.876Z,99.90
2022-09-27T17:55:45.511Z,99.90
2022-09-27T17:58:53.818Z,99.90
2022-09-27T18:00:06.597Z,99.90
2022-09-27T18:01:41.629Z,99.90
2022-09-27T18:02:56.400Z,99.90
2022-09-27T18:04:34.042Z,99.90
2022-09-27T18:09:07.564Z,99.90
2022-09-27T18:10:21.906Z,99.90
2022-09-27T18:13:07.957Z,99.90
2022-09-27T18:14:18.650Z,99.90
2022-09-27T18:17:24.418Z,99.90
2022-09-27T18:19:13.682Z,99.90
2022-09-27T18:22:19.906Z,99.90
2022-09-27T18:23:38.749Z,99.90